Terminal Aerodrome Forecast
Issued by NWS Knoxville/Tri Cities, TN

Home | Current Version | Previous Version | Text Only | Print | Product List | Glossary On
Versions: 1 2 3 4 5 6 7 8 9 10 11 12 13 14 15 16 17 18 19 20
000
FTUS44 KMRX 222059 AAA
TAFTYS
TAF AMD
KTYS 222059Z 2221/2318 11008KT 6SM -RA BR SCT015 BKN050 OVC110
     FM230200 21010KT 6SM BR VCSH SCT010 BKN025
     FM230400 22006KT P6SM SCT010 BKN030
     FM231400 21010G20KT P6SM SCT020 BKN050=

USA.gov is the U.S. government's official web portal to all federal, state and local government web resources and services.